sensor_id;sensor_type;location;lat;lon;timestamp;pressure;altitude;pressure_sealevel;temperature;humidity
61035;BME280;46916;40.564;-7.958;2023-04-15T00:01:11;98042.59;;;12.88;100.00
61035;BME280;46916;40.564;-7.958;2023-04-15T00:03:18;98042.47;;;12.90;100.00
61035;BME280;46916;40.564;-7.958;2023-04-15T00:05:18;98037.34;;;12.88;100.00
61035;BME280;46916;40.564;-7.958;2023-04-15T00:07:19;98036.66;;;12.86;100.00
61035;BME280;46916;40.564;-7.958;2023-04-15T00:09:20;98045.34;;;12.87;100.00
61035;BME280;46916;40.564;-7.958;2023-04-15T00:11:23;98051.13;;;12.81;100.00
61035;BME280;46916;40.564;-7.958;2023-04-15T00:13:24;98040.56;;;12.71;100.00
61035;BME280;46916;40.564;-7.958;2023-04-15T00:15:25;98038.16;;;12.68;100.00
61035;BME280;46916;40.564;-7.958;2023-04-15T00:17:26;98042.75;;;12.66;100.00
61035;BME280;46916;40.564;-7.958;2023-04-15T00:19:27;98048.81;;;12.67;100.00
61035;BME280;46916;40.564;-7.958;2023-04-15T00:21:29;98042.75;;;12.66;100.00
61035;BME280;46916;40.564;-7.958;2023-04-15T00:23:29;98044.66;;;12.64;100.00
61035;BME280;46916;40.564;-7.958;2023-04-15T00:25:30;98046.81;;;12.59;100.00
61035;BME280;46916;40.564;-7.958;2023-04-15T00:27:31;98052.91;;;12.59;100.00
61035;BME280;46916;40.564;-7.958;2023-04-15T00:29:32;98040.75;;;12.58;100.00
61035;BME280;46916;40.564;-7.958;2023-04-15T00:31:33;98042.66;;;12.56;100.00
61035;BME280;46916;40.564;-7.958;2023-04-15T00:33:34;98037.66;;;12.53;100.00
61035;BME280;46916;40.564;-7.958;2023-04-15T00:35:36;98045.28;;;12.56;100.00
61035;BME280;46916;40.564;-7.958;2023-04-15T00:37:39;98039.44;;;12.53;100.00
61035;BME280;46916;40.564;-7.958;2023-04-15T00:39:43;98036.69;;;12.54;100.00
61035;BME280;46916;40.564;-7.958;2023-04-15T00:41:45;98037.19;;;12.48;100.00
61035;BME280;46916;40.564;-7.958;2023-04-15T00:43:46;98041.50;;;12.49;100.00
61035;BME280;46916;40.564;-7.958;2023-04-15T00:45:47;98041.75;;;12.46;100.00
61035;BME280;46916;40.564;-7.958;2023-04-15T00:47:49;98040.09;;;12.45;100.00
61035;BME280;46916;40.564;-7.958;2023-04-15T00:49:50;98040.78;;;12.47;100.00
61035;BME280;46916;40.564;-7.958;2023-04-15T00:51:52;98025.56;;;12.41;100.00
61035;BME280;46916;40.564;-7.958;2023-04-15T00:53:52;98022.78;;;12.43;100.00
61035;BME280;46916;40.564;-7.958;2023-04-15T00:55:53;98029.69;;;12.44;100.00
61035;BME280;46916;40.564;-7.958;2023-04-15T00:57:55;98022.66;;;12.44;100.00
61035;BME280;46916;40.564;-7.958;2023-04-15T00:59:56;98026.81;;;12.47;100.00
61035;BME280;46916;40.564;-7.958;2023-04-15T01:01:57;98028.72;;;12.45;100.00
61035;BME280;46916;40.564;-7.958;2023-04-15T01:03:58;98018.88;;;12.37;100.00
61035;BME280;46916;40.564;-7.958;2023-04-15T01:06:02;98026.50;;;12.40;100.00
61035;BME280;46916;40.564;-7.958;2023-04-15T01:08:02;98022.06;;;12.40;100.00
61035;BME280;46916;40.564;-7.958;2023-04-15T01:10:04;98014.84;;;12.33;100.00
61035;BME280;46916;40.564;-7.958;2023-04-15T01:12:06;98013.16;;;12.32;100.00
61035;BME280;46916;40.564;-7.958;2023-04-15T01:14:09;98015.53;;;12.35;100.00
61035;BME280;46916;40.564;-7.958;2023-04-15T01:16:11;98013.88;;;12.34;100.00
61035;BME280;46916;40.564;-7.958;2023-04-15T01:18:12;98019.63;;;12.28;100.00
61035;BME280;46916;40.564;-7.958;2023-04-15T01:20:13;98018.78;;;12.27;100.00
61035;BME280;46916;40.564;-7.958;2023-04-15T01:22:15;98012.56;;;12.28;100.00
61035;BME280;46916;40.564;-7.958;2023-04-15T01:24:17;98010.91;;;12.27;100.00
61035;BME280;46916;40.564;-7.958;2023-04-15T01:26:20;98005.28;;;12.32;100.00
61035;BME280;46916;40.564;-7.958;2023-04-15T01:28:21;98004.59;;;12.30;100.00
61035;BME280;46916;40.564;-7.958;2023-04-15T01:30:22;98001.44;;;12.36;100.00
61035;BME280;46916;40.564;-7.958;2023-04-15T01:32:23;97999.63;;;12.36;100.00
61035;BME280;46916;40.564;-7.958;2023-04-15T01:34:25;97994.53;;;12.35;100.00
61035;BME280;46916;40.564;-7.958;2023-04-15T01:36:28;98000.59;;;12.35;100.00
61035;BME280;46916;40.564;-7.958;2023-04-15T01:38:29;98002.41;;;12.35;100.00
61035;BME280;46916;40.564;-7.958;2023-04-15T01:40:31;98005.03;;;12.35;100.00
61035;BME280;46916;40.564;-7.958;2023-04-15T01:42:32;97993.84;;;12.33;100.00
61035;BME280;46916;40.564;-7.958;2023-04-15T01:44:33;97993.56;;;12.36;100.00
61035;BME280;46916;40.564;-7.958;2023-04-15T01:46:35;97993.56;;;12.36;100.00
61035;BME280;46916;40.564;-7.958;2023-04-15T01:48:36;97993.56;;;12.36;100.00
61035;BME280;46916;40.564;-7.958;2023-04-15T01:50:37;97988.56;;;12.33;100.00
61035;BME280;46916;40.564;-7.958;2023-04-15T01:52:38;97976.66;;;12.29;100.00
61035;BME280;46916;40.564;-7.958;2023-04-15T01:54:39;97983.56;;;12.30;100.00
61035;BME280;46916;40.564;-7.958;2023-04-15T01:56:40;97980.22;;;12.28;100.00
61035;BME280;46916;40.564;-7.958;2023-04-15T01:58:41;97988.09;;;12.28;100.00
61035;BME280;46916;40.564;-7.958;2023-04-15T02:00:41;97984.66;;;12.27;100.00
61035;BME280;46916;40.564;-7.958;2023-04-15T02:02:42;97979.78;;;12.23;100.00
61035;BME280;46916;40.564;-7.958;2023-04-15T02:04:45;97993.75;;;12.23;100.00
61035;BME280;46916;40.564;-7.958;2023-04-15T02:06:46;97984.00;;;12.14;100.00
61035;BME280;46916;40.564;-7.958;2023-04-15T02:08:49;97998.78;;;12.15;100.00
61035;BME280;46916;40.564;-7.958;2023-04-15T02:10:50;97998.09;;;12.13;100.00
61035;BME280;46916;40.564;-7.958;2023-04-15T02:12:51;97993.91;;;12.10;100.00
61035;BME280;46916;40.564;-7.958;2023-04-15T02:14:52;97983.06;;;12.04;100.00
61035;BME280;46916;40.564;-7.958;2023-04-15T02:16:56;97980.44;;;12.04;100.00
61035;BME280;46916;40.564;-7.958;2023-04-15T02:18:58;97985.44;;;12.07;100.00
61035;BME280;46916;40.564;-7.958;2023-04-15T02:20:59;97982.97;;;12.05;100.00
61035;BME280;46916;40.564;-7.958;2023-04-15T02:23:00;98001.94;;;12.09;100.00
61035;BME280;46916;40.564;-7.958;2023-04-15T02:25:01;97995.25;;;12.05;100.00
61035;BME280;46916;40.564;-7.958;2023-04-15T02:27:02;97999.69;;;12.04;100.00
61035;BME280;46916;40.564;-7.958;2023-04-15T02:29:02;97988.69;;;11.99;100.00
61035;BME280;46916;40.564;-7.958;2023-04-15T02:31:06;97993.50;;;11.94;100.00
61035;BME280;46916;40.564;-7.958;2023-04-15T02:33:09;97986.81;;;11.90;100.00
61035;BME280;46916;40.564;-7.958;2023-04-15T02:35:09;97995.66;;;11.89;100.00
61035;BME280;46916;40.564;-7.958;2023-04-15T02:37:12;97983.38;;;11.78;100.00
61035;BME280;46916;40.564;-7.958;2023-04-15T02:39:13;97980.78;;;11.67;100.00
61035;BME280;46916;40.564;-7.958;2023-04-15T02:41:16;97981.63;;;11.68;100.00
61035;BME280;46916;40.564;-7.958;2023-04-15T02:43:19;98001.41;;;11.72;100.00
61035;BME280;46916;40.564;-7.958;2023-04-15T02:45:20;97979.94;;;11.66;100.00
61035;BME280;46916;40.564;-7.958;2023-04-15T02:47:23;97984.94;;;11.70;100.00
61035;BME280;46916;40.564;-7.958;2023-04-15T02:49:24;97988.31;;;11.72;100.00
61035;BME280;46916;40.564;-7.958;2023-04-15T02:51:29;97982.69;;;11.65;100.00
61035;BME280;46916;40.564;-7.958;2023-04-15T02:53:31;97988.91;;;11.64;100.00
61035;BME280;46916;40.564;-7.958;2023-04-15T02:55:32;97972.56;;;11.60;100.00
61035;BME280;46916;40.564;-7.958;2023-04-15T02:57:33;97982.47;;;11.68;100.00
61035;BME280;46916;40.564;-7.958;2023-04-15T02:59:39;97979.56;;;11.71;100.00
61035;BME280;46916;40.564;-7.958;2023-04-15T03:01:40;97976.13;;;11.71;100.00
61035;BME280;46916;40.564;-7.958;2023-04-15T03:03:41;97983.16;;;11.70;100.00
61035;BME280;46916;40.564;-7.958;2023-04-15T03:05:45;97984.81;;;11.71;100.00
61035;BME280;46916;40.564;-7.958;2023-04-15T03:07:46;97982.19;;;11.71;100.00
61035;BME280;46916;40.564;-7.958;2023-04-15T03:09:47;97980.16;;;11.75;100.00
61035;BME280;46916;40.564;-7.958;2023-04-15T03:11:48;97988.31;;;11.72;99.73
61035;BME280;46916;40.564;-7.958;2023-04-15T03:13:51;97975.66;;;11.65;99.76
61035;BME280;46916;40.564;-7.958;2023-04-15T03:16:01;97981.97;;;11.63;99.49
61035;BME280;46916;40.564;-7.958;2023-04-15T03:18:03;97981.13;;;11.62;99.42
61035;BME280;46916;40.564;-7.958;2023-04-15T03:20:05;97988.19;;;11.62;99.50
61035;BME280;46916;40.564;-7.958;2023-04-15T03:22:06;97986.75;;;11.58;98.45
61035;BME280;46916;40.564;-7.958;2023-04-15T03:24:06;97995.59;;;11.57;98.58
61035;BME280;46916;40.564;-7.958;2023-04-15T03:26:07;97986.31;;;11.53;98.16
61035;BME280;46916;40.564;-7.958;2023-04-15T03:28:08;97988.09;;;11.52;98.17
61035;BME280;46916;40.564;-7.958;2023-04-15T03:30:11;97985.56;;;11.51;98.40
61035;BME280;46916;40.564;-7.958;2023-04-15T03:32:14;97979.50;;;11.50;98.52
61035;BME280;46916;40.564;-7.958;2023-04-15T03:34:18;97979.25;;;11.53;98.53
61035;BME280;46916;40.564;-7.958;2023-04-15T03:36:18;97983.91;;;11.50;98.23
61035;BME280;46916;40.564;-7.958;2023-04-15T03:38:19;97980.22;;;11.41;98.12
61035;BME280;46916;40.564;-7.958;2023-04-15T03:40:20;97985.84;;;11.36;97.72
61035;BME280;46916;40.564;-7.958;2023-04-15T03:42:26;97979.41;;;11.29;97.81
61035;BME280;46916;40.564;-7.958;2023-04-15T03:44:27;97984.78;;;11.28;98.11
61035;BME280;46916;40.564;-7.958;2023-04-15T03:46:28;97985.84;;;11.25;97.91
61035;BME280;46916;40.564;-7.958;2023-04-15T03:48:28;97981.69;;;11.23;98.83
61035;BME280;46916;40.564;-7.958;2023-04-15T03:50:29;97972.28;;;11.20;99.15
61035;BME280;46916;40.564;-7.958;2023-04-15T03:52:30;97973.09;;;11.21;99.37
61035;BME280;46916;40.564;-7.958;2023-04-15T03:54:30;97975.59;;;11.22;99.11
61035;BME280;46916;40.564;-7.958;2023-04-15T03:56:33;97972.97;;;11.22;99.28
61035;BME280;46916;40.564;-7.958;2023-04-15T03:58:34;97978.94;;;11.24;99.86
61035;BME280;46916;40.564;-7.958;2023-04-15T04:00:38;97964.28;;;11.22;99.64
61035;BME280;46916;40.564;-7.958;2023-04-15T04:02:38;97968.09;;;11.18;100.00
61035;BME280;46916;40.564;-7.958;2023-04-15T04:04:39;97967.25;;;11.17;100.00
61035;BME280;46916;40.564;-7.958;2023-04-15T04:06:40;97970.03;;;11.15;100.00
61035;BME280;46916;40.564;-7.958;2023-04-15T04:08:41;97968.91;;;11.18;100.00
61035;BME280;46916;40.564;-7.958;2023-04-15T04:10:41;97981.69;;;11.23;99.90
61035;BME280;46916;40.564;-7.958;2023-04-15T04:12:45;97980.00;;;11.22;99.89
61035;BME280;46916;40.564;-7.958;2023-04-15T04:14:45;97987.41;;;11.28;99.48
61035;BME280;46916;40.564;-7.958;2023-04-15T04:16:46;97980.59;;;11.25;99.14
61035;BME280;46916;40.564;-7.958;2023-04-15T04:18:47;97987.28;;;11.29;99.09
61035;BME280;46916;40.564;-7.958;2023-04-15T04:20:48;97977.53;;;11.20;99.63
61035;BME280;46916;40.564;-7.958;2023-04-15T04:22:51;97979.69;;;11.15;99.78
61035;BME280;46916;40.564;-7.958;2023-04-15T04:24:51;97993.00;;;11.12;100.00
61035;BME280;46916;40.564;-7.958;2023-04-15T04:26:52;97992.28;;;11.10;100.00
61035;BME280;46916;40.564;-7.958;2023-04-15T04:28:53;97995.03;;;11.08;100.00
61035;BME280;46916;40.564;-7.958;2023-04-15T04:30:54;97992.88;;;11.13;99.47
61035;BME280;46916;40.564;-7.958;2023-04-15T04:32:56;97986.94;;;11.11;99.26
61035;BME280;46916;40.564;-7.958;2023-04-15T04:34:56;97993.00;;;11.12;99.15
61035;BME280;46916;40.564;-7.958;2023-04-15T04:36:57;97983.84;;;11.06;99.15
61035;BME280;46916;40.564;-7.958;2023-04-15T04:39:00;97997.41;;;11.00;99.02
61035;BME280;46916;40.564;-7.958;2023-04-15T04:41:01;98000.50;;;11.05;98.76
61035;BME280;46916;40.564;-7.958;2023-04-15T04:43:02;97995.16;;;11.07;98.67
61035;BME280;46916;40.564;-7.958;2023-04-15T04:45:03;97992.78;;;11.04;99.08
61035;BME280;46916;40.564;-7.958;2023-04-15T04:47:03;98004.91;;;11.05;98.40
61035;BME280;46916;40.564;-7.958;2023-04-15T04:49:07;98006.72;;;11.04;98.50
61035;BME280;46916;40.564;-7.958;2023-04-15T04:51:07;97989.69;;;10.99;98.10
61035;BME280;46916;40.564;-7.958;2023-04-15T04:53:09;97988.59;;;11.01;98.33
61035;BME280;46916;40.564;-7.958;2023-04-15T04:55:09;98002.91;;;11.08;97.96
61035;BME280;46916;40.564;-7.958;2023-04-15T04:57:10;98004.09;;;11.04;97.49
61035;BME280;46916;40.564;-7.958;2023-04-15T04:59:12;98009.69;;;11.00;97.18
61035;BME280;46916;40.564;-7.958;2023-04-15T05:01:13;98000.63;;;10.93;97.26
61035;BME280;46916;40.564;-7.958;2023-04-15T05:03:14;98004.69;;;10.97;96.77
61035;BME280;46916;40.564;-7.958;2023-04-15T05:05:15;98004.69;;;10.97;96.49
61035;BME280;46916;40.564;-7.958;2023-04-15T05:07:15;98003.97;;;10.95;96.37
61035;BME280;46916;40.564;-7.958;2023-04-15T05:09:16;98007.78;;;10.90;96.56
61035;BME280;46916;40.564;-7.958;2023-04-15T05:11:17;98006.09;;;10.89;96.55
61035;BME280;46916;40.564;-7.958;2023-04-15T05:13:18;97999.41;;;10.85;96.10
61035;BME280;46916;40.564;-7.958;2023-04-15T05:15:18;98003.81;;;10.85;96.04
61035;BME280;46916;40.564;-7.958;2023-04-15T05:17:22;97996.09;;;10.83;96.12
61035;BME280;46916;40.564;-7.958;2023-04-15T05:19:23;98002.03;;;10.85;96.02
61035;BME280;46916;40.564;-7.958;2023-04-15T05:21:26;98002.03;;;10.85;95.47
61035;BME280;46916;40.564;-7.958;2023-04-15T05:23:29;98007.19;;;10.87;95.46
61035;BME280;46916;40.564;-7.958;2023-04-15T05:25:30;98014.44;;;10.83;95.65
61035;BME280;46916;40.564;-7.958;2023-04-15T05:27:33;98021.91;;;10.77;95.80
61035;BME280;46916;40.564;-7.958;2023-04-15T05:29:34;98015.16;;;10.74;95.62
61035;BME280;46916;40.564;-7.958;2023-04-15T05:31:35;98015.50;;;10.70;95.63
61035;BME280;46916;40.564;-7.958;2023-04-15T05:33:38;98014.63;;;10.69;95.86
61035;BME280;46916;40.564;-7.958;2023-04-15T05:35:39;98017.16;;;10.71;95.35
61035;BME280;46916;40.564;-7.958;2023-04-15T05:37:41;98018.56;;;10.63;95.03
61035;BME280;46916;40.564;-7.958;2023-04-15T05:39:41;98014.28;;;10.62;95.40
61035;BME280;46916;40.564;-7.958;2023-04-15T05:41:43;98018.44;;;10.65;95.64
61035;BME280;46916;40.564;-7.958;2023-04-15T05:43:43;98023.00;;;10.74;94.98
61035;BME280;46916;40.564;-7.958;2023-04-15T05:45:44;98025.50;;;10.76;94.51
61035;BME280;46916;40.564;-7.958;2023-04-15T05:47:48;98018.81;;;10.72;94.33
61035;BME280;46916;40.564;-7.958;2023-04-15T05:49:53;98021.66;;;10.69;94.21
61035;BME280;46916;40.564;-7.958;2023-04-15T05:51:56;98020.22;;;10.64;94.32
61035;BME280;46916;40.564;-7.958;2023-04-15T05:53:57;98028.59;;;10.70;94.35
61035;BME280;46916;40.564;-7.958;2023-04-15T05:55:57;98020.13;;;10.66;94.00
61035;BME280;46916;40.564;-7.958;2023-04-15T05:57:58;98031.78;;;10.73;93.65
61035;BME280;46916;40.564;-7.958;2023-04-15T05:59:59;98029.06;;;10.75;93.07
61035;BME280;46916;40.564;-7.958;2023-04-15T06:02:00;98036.09;;;10.74;93.36
61035;BME280;46916;40.564;-7.958;2023-04-15T06:04:01;98038.72;;;10.74;93.18
61035;BME280;46916;40.564;-7.958;2023-04-15T06:06:02;98043.84;;;10.76;92.94
61035;BME280;46916;40.564;-7.958;2023-04-15T06:08:03;98047.91;;;10.80;92.59
61035;BME280;46916;40.564;-7.958;2023-04-15T06:10:05;98045.16;;;10.81;92.32
61035;BME280;46916;40.564;-7.958;2023-04-15T06:12:05;98041.00;;;10.79;92.64
61035;BME280;46916;40.564;-7.958;2023-04-15T06:14:11;98049.56;;;10.81;92.24
61035;BME280;46916;40.564;-7.958;2023-04-15T06:16:12;98041.34;;;10.74;92.27
61035;BME280;46916;40.564;-7.958;2023-04-15T06:18:14;98044.06;;;10.73;92.11
61035;BME280;46916;40.564;-7.958;2023-04-15T06:20:15;98061.13;;;10.78;92.83
61035;BME280;46916;40.564;-7.958;2023-04-15T06:22:16;98050.03;;;10.75;92.59
61035;BME280;46916;40.564;-7.958;2023-04-15T06:24:16;98048.13;;;10.77;93.00
61035;BME280;46916;40.564;-7.958;2023-04-15T06:26:17;98046.47;;;10.76;92.80
61035;BME280;46916;40.564;-7.958;2023-04-15T06:28:18;98055.06;;;10.78;93.29
61035;BME280;46916;40.564;-7.958;2023-04-15T06:30:23;98053.72;;;10.72;93.06
61035;BME280;46916;40.564;-7.958;2023-04-15T06:32:24;98065.75;;;10.75;92.26
61035;BME280;46916;40.564;-7.958;2023-04-15T06:34:25;98067.75;;;10.71;92.23
61035;BME280;46916;40.564;-7.958;2023-04-15T06:36:29;98068.59;;;10.72;92.39
61035;BME280;46916;40.564;-7.958;2023-04-15T06:38:30;98068.00;;;10.68;92.58
61035;BME280;46916;40.564;-7.958;2023-04-15T06:40:31;98068.94;;;10.67;92.96
61035;BME280;46916;40.564;-7.958;2023-04-15T06:42:31;98073.34;;;10.66;93.34
61035;BME280;46916;40.564;-7.958;2023-04-15T06:44:32;98058.91;;;10.61;93.09
61035;BME280;46916;40.564;-7.958;2023-04-15T06:46:33;98073.22;;;10.68;93.13
61035;BME280;46916;40.564;-7.958;2023-04-15T06:48:34;98076.59;;;10.70;93.02
61035;BME280;46916;40.564;-7.958;2023-04-15T06:50:34;98076.47;;;10.72;92.62
61035;BME280;46916;40.564;-7.958;2023-04-15T06:52:35;98076.47;;;10.72;92.99
61035;BME280;46916;40.564;-7.958;2023-04-15T06:54:36;98082.03;;;10.67;93.08
61035;BME280;46916;40.564;-7.958;2023-04-15T06:56:37;98072.47;;;10.55;93.14
61035;BME280;46916;40.564;-7.958;2023-04-15T06:58:37;98077.31;;;10.48;92.81
61035;BME280;46916;40.564;-7.958;2023-04-15T07:00:40;98076.22;;;10.39;92.53
61035;BME280;46916;40.564;-7.958;2023-04-15T07:02:41;98085.38;;;10.34;93.18
61035;BME280;46916;40.564;-7.958;2023-04-15T07:04:42;98090.50;;;10.35;92.77
61035;BME280;46916;40.564;-7.958;2023-04-15T07:06:42;98092.50;;;10.32;93.08
61035;BME280;46916;40.564;-7.958;2023-04-15T07:08:44;98096.81;;;10.33;93.05
61035;BME280;46916;40.564;-7.958;2023-04-15T07:10:45;98085.38;;;10.34;92.95
61035;BME280;46916;40.564;-7.958;2023-04-15T07:12:47;98094.22;;;10.44;92.80
61035;BME280;46916;40.564;-7.958;2023-04-15T07:14:47;98093.38;;;10.44;92.53
61035;BME280;46916;40.564;-7.958;2023-04-15T07:16:48;98099.22;;;10.47;92.36
61035;BME280;46916;40.564;-7.958;2023-04-15T07:18:49;98103.28;;;10.51;92.09
61035;BME280;46916;40.564;-7.958;2023-04-15T07:20:53;98095.84;;;10.34;91.85
61035;BME280;46916;40.564;-7.958;2023-04-15T07:22:54;98100.59;;;10.29;92.94
61035;BME280;46916;40.564;-7.958;2023-04-15T07:24:55;98098.06;;;10.27;92.91
61035;BME280;46916;40.564;-7.958;2023-04-15T07:26:55;98099.63;;;10.30;93.23
61035;BME280;46916;40.564;-7.958;2023-04-15T07:28:58;98106.81;;;10.39;92.68
61035;BME280;46916;40.564;-7.958;2023-04-15T07:30:58;98098.97;;;10.39;91.72
61035;BME280;46916;40.564;-7.958;2023-04-15T07:33:00;98099.63;;;10.30;92.21
61035;BME280;46916;40.564;-7.958;2023-04-15T07:35:04;98105.38;;;10.35;92.54
61035;BME280;46916;40.564;-7.958;2023-04-15T07:37:04;98095.72;;;10.35;92.36
61035;BME280;46916;40.564;-7.958;2023-04-15T07:39:05;98102.34;;;10.52;92.47
61035;BME280;46916;40.564;-7.958;2023-04-15T07:41:08;98103.97;;;10.77;91.68
61035;BME280;46916;40.564;-7.958;2023-04-15T07:43:09;98099.38;;;10.92;90.27
61035;BME280;46916;40.564;-7.958;2023-04-15T07:45:10;98107.13;;;10.94;90.40
61035;BME280;46916;40.564;-7.958;2023-04-15T07:47:12;98103.81;;;11.03;90.58
61035;BME280;46916;40.564;-7.958;2023-04-15T07:49:12;98106.13;;;11.19;90.17
61035;BME280;46916;40.564;-7.958;2023-04-15T07:51:15;98115.75;;;11.29;89.64
61035;BME280;46916;40.564;-7.958;2023-04-15T07:53:17;98123.78;;;11.39;87.95
61035;BME280;46916;40.564;-7.958;2023-04-15T07:55:18;98114.47;;;11.35;88.17
61035;BME280;46916;40.564;-7.958;2023-04-15T07:57:21;98115.31;;;11.35;87.67
61035;BME280;46916;40.564;-7.958;2023-04-15T07:59:21;98110.53;;;11.40;87.77
61035;BME280;46916;40.564;-7.958;2023-04-15T08:01:22;98122.25;;;11.48;88.01
61035;BME280;46916;40.564;-7.958;2023-04-15T08:03:24;98121.66;;;11.55;87.41
61035;BME280;46916;40.564;-7.958;2023-04-15T08:05:24;98121.88;;;11.63;87.45
61035;BME280;46916;40.564;-7.958;2023-04-15T08:07:25;98123.41;;;11.66;87.87
61035;BME280;46916;40.564;-7.958;2023-04-15T08:09:28;98122.34;;;11.80;87.79
61035;BME280;46916;40.564;-7.958;2023-04-15T08:11:29;98116.88;;;11.94;87.65
61035;BME280;46916;40.564;-7.958;2023-04-15T08:13:30;98121.50;;;12.13;87.08
61035;BME280;46916;40.564;-7.958;2023-04-15T08:15:33;98119.31;;;12.29;86.62
61035;BME280;46916;40.564;-7.958;2023-04-15T08:17:34;98123.69;;;12.40;86.23
61035;BME280;46916;40.564;-7.958;2023-04-15T08:19:35;98116.97;;;12.47;86.08
61035;BME280;46916;40.564;-7.958;2023-04-15T08:21:35;98108.84;;;12.50;85.67
61035;BME280;46916;40.564;-7.958;2023-04-15T08:23:39;98113.50;;;12.58;85.50
61035;BME280;46916;40.564;-7.958;2023-04-15T08:25:40;98112.38;;;12.60;84.87
61035;BME280;46916;40.564;-7.958;2023-04-15T08:27:43;98112.97;;;12.64;85.20
61035;BME280;46916;40.564;-7.958;2023-04-15T08:29:44;98110.78;;;12.69;85.17
61035;BME280;46916;40.564;-7.958;2023-04-15T08:31:45;98115.09;;;12.70;84.97
61035;BME280;46916;40.564;-7.958;2023-04-15T08:33:47;98109.97;;;12.69;86.19
61035;BME280;46916;40.564;-7.958;2023-04-15T08:35:48;98115.56;;;12.75;85.57
61035;BME280;46916;40.564;-7.958;2023-04-15T08:37:49;98110.06;;;12.78;85.43
61035;BME280;46916;40.564;-7.958;2023-04-15T08:39:49;98116.13;;;12.79;85.26
61035;BME280;46916;40.564;-7.958;2023-04-15T08:42:01;98125.53;;;12.81;84.96
61035;BME280;46916;40.564;-7.958;2023-04-15T08:44:05;98122.81;;;12.83;85.20
61035;BME280;46916;40.564;-7.958;2023-04-15T08:46:07;98120.75;;;12.86;85.28
61035;BME280;46916;40.564;-7.958;2023-04-15T08:48:08;98123.13;;;12.89;85.00
61035;BME280;46916;40.564;-7.958;2023-04-15T08:50:13;98127.63;;;12.99;84.79
61035;BME280;46916;40.564;-7.958;2023-04-15T08:52:15;98126.03;;;13.07;84.53
61035;BME280;46916;40.564;-7.958;2023-04-15T08:54:17;98123.59;;;13.16;84.44
61035;BME280;46916;40.564;-7.958;2023-04-15T08:56:27;98130.72;;;13.25;83.93
61035;BME280;46916;40.564;-7.958;2023-04-15T08:58:38;98131.16;;;13.30;83.67
61035;BME280;46916;40.564;-7.958;2023-04-15T09:00:41;98121.78;;;13.37;83.17
61035;BME280;46916;40.564;-7.958;2023-04-15T09:02:48;98120.44;;;13.43;83.00
61035;BME280;46916;40.564;-7.958;2023-04-15T09:04:57;98119.38;;;13.55;82.54
61035;BME280;46916;40.564;-7.958;2023-04-15T09:07:03;98119.31;;;13.66;82.32
61035;BME280;46916;40.564;-7.958;2023-04-15T09:09:13;98128.19;;;13.75;82.07
61035;BME280;46916;40.564;-7.958;2023-04-15T09:11:29;98132.81;;;13.82;82.18
61035;BME280;46916;40.564;-7.958;2023-04-15T09:13:34;98131.47;;;13.88;81.81
61035;BME280;46916;40.564;-7.958;2023-04-15T09:15:40;98127.59;;;13.92;81.68
61035;BME280;46916;40.564;-7.958;2023-04-15T09:17:48;98114.84;;;13.97;81.47
61035;BME280;46916;40.564;-7.958;2023-04-15T09:20:22;98116.81;;;14.05;81.86
61035;BME280;46916;40.564;-7.958;2023-04-15T09:22:31;98117.63;;;14.05;81.56
61035;BME280;46916;40.564;-7.958;2023-04-15T09:24:38;98119.44;;;14.05;80.74
61035;BME280;46916;40.564;-7.958;2023-04-15T09:26:43;98115.00;;;14.05;80.64
61035;BME280;46916;40.564;-7.958;2023-04-15T09:28:45;98116.81;;;14.15;80.41
61035;BME280;46916;40.564;-7.958;2023-04-15T09:30:51;98115.59;;;14.19;79.82
61035;BME280;46916;40.564;-7.958;2023-04-15T09:33:00;98118.22;;;14.28;79.51
61035;BME280;46916;40.564;-7.958;2023-04-15T09:35:11;98116.59;;;14.37;79.15
61035;BME280;46916;40.564;-7.958;2023-04-15T09:37:12;98113.41;;;14.43;79.04
61035;BME280;46916;40.564;-7.958;2023-04-15T09:39:15;98118.25;;;14.48;78.97
61035;BME280;46916;40.564;-7.958;2023-04-15T09:41:16;98120.66;;;14.51;78.63
61035;BME280;46916;40.564;-7.958;2023-04-15T09:43:20;98116.63;;;14.56;78.51
61035;BME280;46916;40.564;-7.958;2023-04-15T09:45:21;98120.53;;;14.62;77.92
61035;BME280;46916;40.564;-7.958;2023-04-15T09:47:27;98121.22;;;14.64;77.63
61035;BME280;46916;40.564;-7.958;2023-04-15T09:49:28;98117.22;;;14.70;76.90
61035;BME280;46916;40.564;-7.958;2023-04-15T09:51:35;98117.63;;;14.75;76.76
61035;BME280;46916;40.564;-7.958;2023-04-15T09:53:36;98118.84;;;14.80;76.19
61035;BME280;46916;40.564;-7.958;2023-04-15T09:55:43;98117.59;;;14.84;75.77
61035;BME280;46916;40.564;-7.958;2023-04-15T09:57:45;98112.72;;;14.90;75.15
61035;BME280;46916;40.564;-7.958;2023-04-15T09:59:50;98114.97;;;14.94;72.39
61035;BME280;46916;40.564;-7.958;2023-04-15T10:01:50;98110.22;;;14.98;65.77
61035;BME280;46916;40.564;-7.958;2023-04-15T10:03:52;98115.94;;;15.03;66.99
61035;BME280;46916;40.564;-7.958;2023-04-15T10:05:55;98112.59;;;15.10;67.70
61035;BME280;46916;40.564;-7.958;2023-04-15T10:07:57;98117.84;;;15.20;69.48
61035;BME280;46916;40.564;-7.958;2023-04-15T10:09:58;98114.88;;;15.33;67.19
61035;BME280;46916;40.564;-7.958;2023-04-15T10:12:01;98109.19;;;15.38;67.79
61035;BME280;46916;40.564;-7.958;2023-04-15T10:14:04;98103.47;;;15.42;67.39
61035;BME280;46916;40.564;-7.958;2023-04-15T10:16:10;98102.34;;;15.45;65.75
61035;BME280;46916;40.564;-7.958;2023-04-15T10:18:14;98101.25;;;15.47;65.74
61035;BME280;46916;40.564;-7.958;2023-04-15T10:20:16;98098.00;;;15.53;64.80
61035;BME280;46916;40.564;-7.958;2023-04-15T10:22:19;98093.44;;;15.55;65.15
61035;BME280;46916;40.564;-7.958;2023-04-15T10:24:20;98095.22;;;15.55;65.31
61035;BME280;46916;40.564;-7.958;2023-04-15T10:26:22;98090.78;;;15.55;65.37
61035;BME280;46916;40.564;-7.958;2023-04-15T10:28:24;98098.56;;;15.57;65.50
61035;BME280;46916;40.564;-7.958;2023-04-15T10:30:26;98095.75;;;15.58;65.93
61035;BME280;46916;40.564;-7.958;2023-04-15T10:32:27;98093.00;;;15.60;64.15
61035;BME280;46916;40.564;-7.958;2023-04-15T10:34:28;98098.06;;;15.81;60.46
61035;BME280;46916;40.564;-7.958;2023-04-15T10:36:31;98097.47;;;15.87;58.98